Time;durP1;ratioP1;P1;durP2;ratioP2;P2;SDS_P1;SDS_P2;PMS_P1;PMS_P2;Temp;Humidity;BMP_temperature;BMP_pressure;BME280_temperature;BME280_humidity;BME280_pressure;Samples;Min_cycle;Max_cycle;Signal;HPM_P1;HPM_P2
2022/12/12 00:02:20;;;;;;;5.45;4.30;;;;;;;17.59;41.04;101033.59;5045466;28;20038;-60
2022/12/12 00:04:45;;;;;;;5.80;4.60;;;;;;;17.59;41.16;101038.13;5045863;28;20168;-60
2022/12/12 00:07:10;;;;;;;5.75;4.38;;;;;;;17.59;40.92;101035.44;5046046;28;20025;-60
2022/12/12 00:09:36;;;;;;;4.60;3.90;;;;;;;17.59;41.11;101043.50;5041464;28;20030;-60
2022/12/12 00:12:01;;;;;;;6.00;4.13;;;;;;;17.59;41.27;101038.97;5025990;28;20026;-61
2022/12/12 00:14:27;;;;;;;5.97;4.38;;;;;;;17.58;41.18;101031.88;5025767;28;20033;-59
2022/12/12 00:16:52;;;;;;;5.97;4.72;;;;;;;17.58;41.15;101044.47;5035377;28;20047;-60
2022/12/12 00:19:17;;;;;;;5.35;4.22;;;;;;;17.58;41.11;101039.09;5045984;28;20120;-60
2022/12/12 00:21:44;;;;;;;4.78;3.80;;;;;;;17.57;41.05;101040.13;5045789;28;20036;-60
2022/12/12 00:24:09;;;;;;;5.25;4.22;;;;;;;17.57;41.01;101038.28;5045116;28;20064;-60
2022/12/12 00:26:34;;;;;;;5.32;4.18;;;;;;;17.57;41.07;101046.34;5045108;28;20029;-60
2022/12/12 00:29:01;;;;;;;4.30;3.90;;;;;;;17.57;41.13;101051.72;5045751;28;20497;-60
2022/12/12 00:31:27;;;;;;;4.95;4.25;;;;;;;17.55;41.19;101037.59;5045469;28;20064;-60
2022/12/12 00:33:53;;;;;;;5.20;4.07;;;;;;;17.57;40.98;101045.50;5044859;28;20021;-60
2022/12/12 00:36:21;;;;;;;6.32;4.40;;;;;;;17.57;41.17;101040.13;5043618;28;20036;-60
2022/12/12 00:38:47;;;;;;;5.80;4.28;;;;;;;17.56;41.17;101033.91;5045675;28;20030;-60
2022/12/12 00:41:12;;;;;;;5.45;4.22;;;;;;;17.56;41.21;101033.91;5045259;28;20025;-61
2022/12/12 00:43:38;;;;;;;5.32;4.28;;;;;;;17.57;41.14;101037.44;5045026;28;20052;-60
2022/12/12 00:46:03;;;;;;;4.78;4.03;;;;;;;17.56;40.94;101044.66;5044201;28;20108;-60
2022/12/12 00:48:29;;;;;;;6.03;4.50;;;;;;;17.57;41.17;101043.66;5044722;28;20049;-60
2022/12/12 00:50:55;;;;;;;5.45;4.32;;;;;;;17.56;40.98;101039.28;5045115;28;20026;-60
2022/12/12 00:53:22;;;;;;;5.18;3.80;;;;;;;17.56;40.83;101041.13;5043801;28;20051;-60
2022/12/12 00:55:57;;;;;;;4.43;3.72;;;;;;;17.57;40.99;101046.34;5044350;28;20029;-61
2022/12/12 00:58:23;;;;;;;4.38;3.97;;;;;;;17.57;40.85;101053.56;5045084;28;20483;-60
2022/12/12 01:00:49;;;;;;;6.43;4.50;;;;;;;17.58;41.08;101053.38;5044912;28;20029;-60
2022/12/12 01:03:14;;;;;;;3.97;3.50;;;;;;;17.57;40.75;101059.78;5044142;28;20076;-60
2022/12/12 01:05:39;;;;;;;4.53;3.85;;;;;;;17.56;40.98;101057.25;5044530;28;20105;-60
2022/12/12 01:08:05;;;;;;;4.95;4.10;;;;;;;17.58;40.81;101049.88;5044799;28;20481;-60
2022/12/12 01:10:30;;;;;;;4.80;4.03;;;;;;;17.57;41.05;101059.78;5060157;28;20088;-60
2022/12/12 01:12:55;;;;;;;4.60;3.70;;;;;;;17.56;40.99;101054.56;5044840;28;20183;-60
2022/12/12 01:15:21;;;;;;;5.95;4.10;;;;;;;17.57;40.94;101059.78;5043734;28;20065;-61
2022/12/12 01:17:46;;;;;;;5.75;4.45;;;;;;;17.58;41.00;101066.00;5043619;28;20105;-60
2022/12/12 01:20:18;;;;;;;4.97;4.15;;;;;;;17.57;40.86;101061.63;5044818;28;20034;-60
2022/12/12 01:22:43;;;;;;;4.35;3.65;;;;;;;17.58;40.78;101071.38;5044749;28;20024;-60
2022/12/12 01:25:10;;;;;;;4.75;3.80;;;;;;;17.58;40.94;101066.00;5044621;28;20060;-60
2022/12/12 01:27:36;;;;;;;4.95;4.13;;;;;;;17.58;40.99;101066.00;5044366;28;20056;-60
2022/12/12 01:30:02;;;;;;;4.50;3.97;;;;;;;17.49;40.83;101055.16;5044675;28;20022;-60
2022/12/12 01:32:27;;;;;;;4.95;3.72;;;;;;;17.56;40.81;101068.84;5044131;28;20108;-60
2022/12/12 01:34:53;;;;;;;5.30;3.85;;;;;;;17.57;40.80;101067.84;5044114;28;20469;-60
2022/12/12 01:37:18;;;;;;;4.60;3.90;;;;;;;17.57;40.78;101072.38;5044736;28;20031;-60
2022/12/12 01:39:44;;;;;;;4.32;3.78;;;;;;;17.57;40.93;101081.28;5044761;28;20689;-60
2022/12/12 01:42:16;;;;;;;4.53;3.85;;;;;;;17.56;41.02;101081.44;5044467;28;20038;-60
2022/12/12 01:44:46;;;;;;;4.18;3.45;;;;;;;17.57;40.86;101083.13;5044353;28;20033;-60
2022/12/12 01:47:13;;;;;;;4.70;3.70;;;;;;;17.57;41.01;101083.13;5043025;28;20079;-60
2022/12/12 01:49:40;;;;;;;4.57;3.80;;;;;;;17.55;40.95;101080.63;5044729;28;20025;-60
2022/12/12 01:52:09;;;;;;;6.03;4.20;;;;;;;17.55;40.94;101082.47;5042906;28;20029;-60
2022/12/12 01:54:40;;;;;;;4.57;3.80;;;;;;;17.52;40.81;101080.91;5044328;28;20025;-61
2022/12/12 01:57:09;;;;;;;4.97;3.80;;;;;;;17.55;40.95;101093.22;5043050;28;20025;-60
2022/12/12 01:59:35;;;;;;;4.25;3.30;;;;;;;17.56;40.74;101084.13;5044316;28;20025;-60
2022/12/12 02:02:01;;;;;;;5.43;4.10;;;;;;;17.55;41.02;101086.00;5043750;28;20037;-60
2022/12/12 02:04:27;;;;;;;4.35;3.95;;;;;;;17.55;40.70;101090.53;5043922;28;20028;-61
2022/12/12 02:06:53;;;;;;;3.97;3.20;;;;;;;17.55;40.86;101087.84;5044237;28;20083;-60
2022/12/12 02:09:19;;;;;;;5.35;3.83;;;;;;;17.54;40.92;101081.59;5039680;28;20050;-60
2022/12/12 02:11:48;;;;;;;4.03;3.63;;;;;;;17.56;40.72;101089.53;5022886;28;20029;-60
2022/12/12 02:14:18;;;;;;;5.38;3.90;;;;;;;17.46;40.99;101077.00;5039358;28;20030;-60
2022/12/12 02:17:14;;;;;;;5.07;3.88;;;;;;;17.55;40.76;101090.53;5050072;28;20025;-59
2022/12/12 02:20:17;;;;;;;4.30;3.30;;;;;;;17.54;40.87;101081.59;5045871;28;20042;-60
2022/12/12 02:23:01;;;;;;;4.40;4.00;;;;;;;17.54;40.90;101083.44;5047701;28;20025;-60
2022/12/12 02:25:52;;;;;;;4.10;3.55;;;;;;;17.54;40.99;101078.91;5047678;28;20068;-66
2022/12/12 02:28:53;;;;;;;4.30;3.45;;;;;;;17.53;40.72;101081.75;5046796;28;20041;-61
2022/12/12 02:31:23;;;;;;;4.55;3.70;;;;;;;17.53;40.70;101076.38;5047706;28;20039;-64
2022/12/12 02:34:04;;;;;;;4.43;3.95;;;;;;;17.54;40.97;101075.38;5045403;28;20029;-61
2022/12/12 02:36:51;;;;;;;3.85;3.45;;;;;;;17.53;40.83;101076.38;5063109;28;20025;-68
2022/12/12 02:39:17;;;;;;;4.53;3.72;;;;;;;17.54;40.74;101078.06;5046546;28;20033;-59
2022/12/12 02:41:49;;;;;;;4.35;3.50;;;;;;;17.53;40.76;101076.38;5047514;28;20033;-60
2022/12/12 02:44:27;;;;;;;4.18;3.55;;;;;;;17.53;40.76;101085.28;5062341;28;20082;-60
2022/12/12 02:47:17;;;;;;;4.55;3.85;;;;;;;17.54;40.82;101083.44;5045340;28;20080;-59
2022/12/12 02:49:47;;;;;;;4.28;3.78;;;;;;;17.54;40.64;101081.59;5046812;28;20029;-59
2022/12/12 02:52:12;;;;;;;5.40;3.88;;;;;;;17.53;40.70;101079.91;5046002;28;20028;-60
2022/12/12 02:54:38;;;;;;;4.97;4.05;;;;;;;17.55;40.82;101085.16;5046944;28;20053;-60
2022/12/12 02:57:10;;;;;;;5.20;3.72;;;;;;;17.53;40.57;101085.28;5046941;28;20021;-59
2022/12/12 02:59:39;;;;;;;4.30;3.75;;;;;;;17.54;40.75;101086.13;5046208;28;20100;-60
2022/12/12 03:02:23;;;;;;;4.70;4.07;;;;;;;17.54;40.86;101086.97;5045476;28;20448;-60
2022/12/12 03:07:47;;;;;;;4.47;3.63;;;;;;;17.46;40.73;101077.00;5047201;28;20048;-60
2022/12/12 03:10:28;;;;;;;3.83;3.25;;;;;;;17.54;40.66;101096.88;5027002;28;20430;-60
2022/12/12 03:13:14;;;;;;;3.83;3.22;;;;;;;17.54;40.83;101092.34;5033044;28;20033;-60
2022/12/12 03:15:55;;;;;;;3.92;3.40;;;;;;;17.49;40.63;101090.13;5044490;28;20038;-60
2022/12/12 03:18:22;;;;;;;3.42;3.10;;;;;;;17.55;40.73;101093.22;5045233;28;20029;-60
2022/12/12 03:20:58;;;;;;;4.30;3.38;;;;;;;17.47;40.70;101078.69;5047054;28;20063;-61
2022/12/12 03:23:31;;;;;;;3.63;3.25;;;;;;;17.55;40.61;101094.06;5045536;28;20064;-61
2022/12/12 03:26:05;;;;;;;3.83;3.42;;;;;;;17.52;40.63;101090.81;5045278;28;20045;-60
2022/12/12 03:28:38;;;;;;;4.20;3.20;;;;;;;17.51;40.69;101089.16;5046037;28;20029;-60
2022/12/12 03:31:08;;;;;;;4.70;3.03;;;;;;;17.55;40.79;101101.28;5045220;28;20376;-60
2022/12/12 03:33:42;;;;;;;4.03;3.38;;;;;;;17.56;40.63;101094.91;5044582;28;20040;-60
2022/12/12 03:36:15;;;;;;;4.40;3.70;;;;;;;17.55;40.68;101095.91;5045405;28;20049;-60
2022/12/12 03:38:43;;;;;;;6.47;3.50;;;;;;;17.57;40.54;101093.88;5046649;28;20616;-60
2022/12/12 03:41:17;;;;;;;3.60;3.30;;;;;;;17.57;40.65;101093.88;5045062;28;20021;-60
2022/12/12 03:43:46;;;;;;;3.53;3.22;;;;;;;17.57;40.55;101085.81;5044914;28;20036;-60
2022/12/12 03:46:23;;;;;;;3.88;3.47;;;;;;;17.57;40.59;101091.19;5043978;28;20021;-60
2022/12/12 03:49:00;;;;;;;3.72;3.33;;;;;;;17.49;40.69;101081.22;5045113;28;20503;-60
2022/12/12 03:51:32;;;;;;;4.68;3.67;;;;;;;17.56;40.67;101100.28;5045098;28;20021;-61
2022/12/12 03:54:17;;;;;;;3.50;2.90;;;;;;;17.57;40.62;101100.09;5044983;28;20075;-61
2022/12/12 03:56:46;;;;;;;3.20;2.90;;;;;;;17.56;40.57;101094.91;5044577;28;20029;-61
2022/12/12 03:59:28;;;;;;;3.53;3.08;;;;;;;17.56;40.55;101097.59;5045177;28;20057;-61
2022/12/12 04:01:57;;;;;;;4.13;3.40;;;;;;;17.48;40.61;101082.22;5044053;28;20113;-61
2022/12/12 04:04:36;;;;;;;3.45;3.15;;;;;;;17.56;40.49;101103.81;5045994;28;20045;-61
2022/12/12 04:07:05;;;;;;;4.38;3.15;;;;;;;17.56;40.68;101093.03;5044345;28;20048;-61
2022/12/12 04:15:18;;;;;;;3.88;3.10;;;;;;;17.55;40.70;101106.66;5044169;28;20060;-60
2022/12/12 04:17:57;;;;;;;3.20;2.90;;;;;;;17.54;40.56;101099.56;5044102;28;20048;-60
2022/12/12 04:23:50;;;;;;;3.13;2.70;;;;;;;17.56;40.41;101101.13;5044245;28;20035;-60
2022/12/12 04:26:40;;;;;;;4.05;3.22;;;;;;;17.53;40.37;101096.03;5044044;28;20061;-60
2022/12/12 04:29:17;;;;;;;4.13;3.45;;;;;;;17.55;40.60;101098.59;5045708;28;20079;-60
2022/12/12 04:32:09;;;;;;;3.70;3.20;;;;;;;17.54;40.56;101103.09;5045121;28;20022;-60
2022/12/12 04:34:53;;;;;;;3.08;2.80;;;;;;;17.51;40.43;101105.28;5045691;28;20032;-60
2022/12/12 04:37:36;;;;;;;4.05;3.15;;;;;;;17.55;40.42;101114.72;5025533;28;20045;-60
2022/12/12 04:40:04;;;;;;;3.00;2.75;;;;;;;17.55;40.62;101115.56;5024631;28;20026;-60
2022/12/12 04:42:33;;;;;;;3.22;2.85;;;;;;;17.55;40.66;101118.25;5023345;28;20485;-60
2022/12/12 04:45:04;;;;;;;3.80;3.28;;;;;;;17.54;40.64;101119.22;5024001;28;20052;-60
2022/12/12 04:47:30;;;;;;;3.83;3.00;;;;;;;17.48;40.40;101118.00;5022946;28;20049;-60
2022/12/12 04:49:56;;;;;;;3.65;3.30;;;;;;;17.55;40.44;101122.78;5025692;28;20529;-60
2022/12/12 04:52:23;;;;;;;3.55;3.17;;;;;;;17.56;40.48;101127.16;5025045;28;20034;-60
2022/12/12 04:55:12;;;;;;;3.65;2.97;;;;;;;17.56;40.34;101122.63;5040474;28;20114;-60
2022/12/12 04:57:43;;;;;;;3.42;2.72;;;;;;;17.57;40.38;101123.47;5040480;28;20083;-60
2022/12/12 05:00:11;;;;;;;3.58;3.00;;;;;;;17.56;40.35;101121.78;5024119;28;20085;-61
2022/12/12 05:02:39;;;;;;;3.25;2.92;;;;;;;17.55;40.50;101129.00;5039662;28;20037;-61
2022/12/12 05:05:11;;;;;;;3.40;2.92;;;;;;;17.55;40.56;101123.63;5026866;28;20073;-60
2022/12/12 05:07:43;;;;;;;3.30;2.70;;;;;;;17.56;40.29;101121.78;5043565;28;20753;-61
2022/12/12 05:10:13;;;;;;;3.60;3.03;;;;;;;17.51;40.36;101114.19;5023646;28;20022;-60
2022/12/12 05:12:42;;;;;;;4.10;3.30;;;;;;;17.56;40.24;101124.47;5040305;28;20033;-60
2022/12/12 05:15:08;;;;;;;3.27;2.97;;;;;;;17.55;40.48;101125.47;5024661;28;20029;-61
2022/12/12 05:17:47;;;;;;;3.25;2.70;;;;;;;17.54;40.51;101127.28;5055377;28;20025;-60
2022/12/12 05:20:14;;;;;;;3.50;2.95;;;;;;;17.56;40.29;101129.84;5044491;28;20031;-60
2022/12/12 05:22:39;;;;;;;3.45;3.15;;;;;;;17.43;40.33;101106.88;5044581;28;20025;-60
2022/12/12 05:25:05;;;;;;;3.70;2.75;;;;;;;17.48;40.41;101119.84;5044783;28;20048;-60
2022/12/12 05:27:30;;;;;;;3.97;3.00;;;;;;;17.57;40.40;101131.53;5044308;28;20509;-61
2022/12/12 05:29:55;;;;;;;3.70;3.30;;;;;;;17.48;40.45;101115.31;5044376;28;20029;-61
2022/12/12 05:32:21;;;;;;;3.88;3.10;;;;;;;17.47;40.46;101119.00;5043869;28;20034;-61
2022/12/12 05:34:46;;;;;;;3.05;2.75;;;;;;;17.56;40.41;101129.84;5044512;28;20064;-61
2022/12/12 05:37:11;;;;;;;3.65;3.15;;;;;;;17.56;40.55;101132.53;5043487;28;20040;-60
2022/12/12 05:39:37;;;;;;;3.55;3.20;;;;;;;17.58;40.47;101139.44;5060074;28;20056;-61
2022/12/12 05:42:02;;;;;;;3.92;3.47;;;;;;;17.52;40.54;101132.00;5040116;28;20087;-60
2022/12/12 05:44:27;;;;;;;3.97;3.15;;;;;;;17.59;40.60;101141.13;5044312;28;20029;-60
2022/12/12 05:46:53;;;;;;;3.38;2.97;;;;;;;17.54;40.63;101129.97;5043023;28;20057;-60
2022/12/12 05:49:18;;;;;;;2.97;2.67;;;;;;;17.60;40.71;101141.97;5047011;28;20421;-60
2022/12/12 05:51:44;;;;;;;3.60;2.92;;;;;;;17.60;40.44;101140.13;5047171;28;20033;-61
2022/12/12 05:54:09;;;;;;;3.70;2.75;;;;;;;17.58;40.58;101135.91;5065643;28;20040;-60
2022/12/12 05:56:34;;;;;;;3.70;3.10;;;;;;;17.62;40.49;101135.44;5068185;28;20044;-60
2022/12/12 05:58:59;;;;;;;3.40;2.78;;;;;;;17.61;40.40;101139.13;5067983;28;20092;-60
2022/12/12 06:01:25;;;;;;;4.15;3.20;;;;;;;17.63;40.60;101141.69;5068252;28;20029;-60
2022/12/12 06:03:50;;;;;;;3.88;2.63;;;;;;;17.63;40.57;101139.84;5067504;28;20040;-61
2022/12/12 06:06:15;;;;;;;3.40;2.97;;;;;;;17.64;40.70;101143.38;5053753;28;20112;-61
2022/12/12 06:08:41;;;;;;;3.65;2.80;;;;;;;17.64;40.55;101138.81;5032968;28;20087;-60
2022/12/12 06:11:06;;;;;;;3.88;3.20;;;;;;;17.64;40.65;101141.50;5028158;28;20372;-60
2022/12/12 06:13:32;;;;;;;4.00;2.78;;;;;;;17.65;40.73;101142.34;5028080;28;20033;-60
2022/12/12 06:15:57;;;;;;;3.28;2.70;;;;;;;17.61;41.05;101135.59;5034444;28;20064;-60
2022/12/12 06:18:23;;;;;;;3.42;2.85;;;;;;;17.67;40.94;101151.09;5038723;28;20030;-60
2022/12/12 06:20:48;;;;;;;3.58;3.05;;;;;;;17.68;41.14;101147.44;5042025;28;20437;-60
2022/12/12 06:23:13;;;;;;;3.40;3.00;;;;;;;17.68;40.98;101140.22;5047687;28;20034;-61
2022/12/12 06:25:39;;;;;;;3.42;3.03;;;;;;;17.70;40.98;101148.09;5038779;28;20018;-61
2022/12/12 06:28:04;;;;;;;3.08;2.70;;;;;;;17.70;41.30;101153.47;5035887;28;20061;-58
2022/12/12 06:30:29;;;;;;;3.22;2.90;;;;;;;17.72;41.13;101151.50;5026330;28;20534;-58
2022/12/12 06:32:55;;;;;;;3.33;2.60;;;;;;;17.66;41.06;101138.66;5027330;28;20056;-59
2022/12/12 06:35:20;;;;;;;3.33;3.03;;;;;;;17.71;41.26;101147.09;5033257;28;20167;-59
2022/12/12 06:37:47;;;;;;;4.03;3.05;;;;;;;17.72;41.47;101154.19;5047092;28;20505;-59
2022/12/12 06:40:13;;;;;;;3.03;2.72;;;;;;;17.74;41.44;101152.22;5047618;28;20032;-59
2022/12/12 06:42:38;;;;;;;3.17;2.50;;;;;;;17.74;41.29;101154.91;5047519;28;20025;-59
2022/12/12 06:45:04;;;;;;;3.75;3.17;;;;;;;17.74;41.54;101154.91;5047263;28;20029;-59
2022/12/12 06:47:29;;;;;;;3.83;3.20;;;;;;;17.72;41.10;101154.19;5045323;28;20072;-59
2022/12/12 06:49:54;;;;;;;3.60;2.97;;;;;;;17.72;41.17;101149.66;5045216;28;20093;-59
2022/12/12 06:52:20;;;;;;;3.90;2.70;;;;;;;17.72;41.25;101149.66;5036218;28;20022;-60
2022/12/12 06:54:45;;;;;;;3.33;2.80;;;;;;;17.76;41.49;101152.91;5035854;28;20032;-59
2022/12/12 06:57:10;;;;;;;3.10;2.75;;;;;;;17.77;41.31;101151.91;5033373;28;20048;-60
2022/12/12 06:59:35;;;;;;;3.35;2.75;;;;;;;17.78;41.35;101160.81;5034221;28;20046;-59
2022/12/12 07:02:01;;;;;;;3.38;2.75;;;;;;;17.77;41.54;101154.59;5035444;28;20029;-59
2022/12/12 07:04:26;;;;;;;3.08;2.78;;;;;;;17.77;41.48;101164.50;5028028;28;20111;-60
2022/12/12 07:06:52;;;;;;;3.25;2.67;;;;;;;17.76;41.54;101158.28;5030722;28;20041;-59
2022/12/12 07:09:18;;;;;;;3.08;2.78;;;;;;;17.75;41.64;101151.19;5048242;28;20101;-59
2022/12/12 07:11:43;;;;;;;4.25;2.72;;;;;;;17.81;41.60;101160.50;5059500;28;20040;-60
2022/12/12 07:14:09;;;;;;;3.38;2.75;;;;;;;17.82;41.63;101168.41;5049736;28;20046;-59
2022/12/12 07:16:34;;;;;;;3.42;2.80;;;;;;;17.84;41.99;101170.94;5064587;28;20079;-59
2022/12/12 07:19:00;;;;;;;4.57;3.17;;;;;;;17.86;41.58;101168.97;5052347;28;20052;-59
2022/12/12 07:21:25;;;;;;;3.08;2.63;;;;;;;17.79;41.79;101157.13;5056794;28;20033;-59
2022/12/12 07:23:50;;;;;;;3.58;2.88;;;;;;;17.80;41.79;101157.00;5047120;28;20037;-60
2022/12/12 07:26:18;;;;;;;3.80;2.50;;;;;;;17.80;41.77;101159.69;5064938;28;20032;-59
2022/12/12 07:28:43;;;;;;;3.42;2.83;;;;;;;17.87;41.67;101174.16;5054541;28;20025;-59
2022/12/12 07:31:12;;;;;;;4.00;2.95;;;;;;;17.88;41.93;101177.69;5051435;28;20037;-59
2022/12/12 07:33:38;;;;;;;8.35;2.90;;;;;;;17.89;41.49;101176.72;5057198;28;20035;-59
2022/12/12 07:36:04;;;;;;;3.80;3.20;;;;;;;17.90;41.88;101176.56;5063910;28;20108;-59
2022/12/12 07:38:30;;;;;;;5.18;3.47;;;;;;;17.89;41.73;101174.03;5047748;28;20037;-61
2022/12/12 07:40:55;;;;;;;3.17;2.70;;;;;;;17.93;41.53;101186.19;5045072;28;20029;-61
2022/12/12 07:43:21;;;;;;;6.13;3.83;;;;;;;17.93;41.74;101184.31;5056994;28;20033;-61
2022/12/12 07:45:47;;;;;;;5.00;3.35;;;;;;;17.95;41.85;101187.69;5060797;28;20025;-60
2022/12/12 07:48:13;;;;;;;4.93;3.60;;;;;;;17.96;41.67;101189.38;5002875;28;1215312;-61
2022/12/12 07:50:39;;;;;;;6.38;4.20;;;;;;;17.98;41.39;101194.63;5054937;28;20037;-60
2022/12/12 07:53:06;;;;;;;4.85;3.20;;;;;;;17.99;41.35;101191.75;5052268;28;20037;-60
2022/12/12 07:55:32;;;;;;;4.57;3.10;;;;;;;18.01;41.23;101193.44;5061779;28;20028;-60
2022/12/12 07:57:57;;;;;;;5.93;3.78;;;;;;;17.97;41.40;101193.78;5048906;28;20029;-60
2022/12/12 08:00:23;;;;;;;4.63;3.38;;;;;;;17.98;41.35;101198.16;5059011;28;20037;-60
2022/12/12 08:02:49;;;;;;;8.13;3.60;;;;;;;17.99;41.44;101207.06;5044650;28;20033;-60
2022/12/12 08:05:15;;;;;;;4.07;3.42;;;;;;;17.98;41.18;101214.28;5045790;28;20034;-60
2022/12/12 08:07:40;;;;;;;4.82;3.70;;;;;;;17.95;41.09;101197.63;5062483;28;20119;-60
2022/12/12 08:10:06;;;;;;;5.35;3.60;;;;;;;18.02;41.14;101203.22;5046045;28;20040;-59
2022/12/12 08:12:31;;;;;;;4.88;3.38;;;;;;;18.04;41.09;101212.81;5045976;28;20033;-60
2022/12/12 08:14:57;;;;;;;4.80;3.47;;;;;;;18.06;40.92;101218.06;5045712;28;20033;-60
2022/12/12 08:17:22;;;;;;;5.82;3.60;;;;;;;18.06;40.68;101215.38;5043992;28;20042;-62
2022/12/12 08:19:47;;;;;;;5.60;3.83;;;;;;;18.06;40.92;101215.38;5046078;28;20478;-60
2022/12/12 08:22:13;;;;;;;5.07;3.33;;;;;;;18.02;40.91;101211.31;5045549;28;20072;-60
2022/12/12 08:24:38;;;;;;;4.53;3.67;;;;;;;18.01;40.64;101215.84;5045525;28;20025;-60
2022/12/12 08:27:04;;;;;;;4.82;3.08;;;;;;;18.04;40.76;101211.97;5045264;28;20047;-60
2022/12/12 08:29:29;;;;;;;4.65;3.58;;;;;;;18.06;40.88;101221.59;5045477;28;20025;-60
2022/12/12 08:31:55;;;;;;;5.30;4.00;;;;;;;18.07;40.93;101220.59;5045619;28;20036;-60
2022/12/12 08:34:20;;;;;;;6.07;4.00;;;;;;;18.00;40.92;101208.75;5044702;28;20041;-60
2022/12/12 08:36:46;;;;;;;5.00;3.50;;;;;;;18.09;40.58;101218.56;5045151;28;20035;-60
2022/12/12 08:39:14;;;;;;;7.88;3.78;;;;;;;18.09;40.48;101221.25;5045532;28;20041;-60
2022/12/12 08:41:42;;;;;;;5.95;3.80;;;;;;;18.09;40.42;101217.72;5045440;28;20033;-59
2022/12/12 08:44:09;;;;;;;6.05;4.03;;;;;;;18.09;40.72;101218.56;5042980;28;20038;-61
2022/12/12 08:46:35;;;;;;;4.57;3.70;;;;;;;18.08;41.19;101214.19;5042222;28;20041;-61
2022/12/12 08:49:00;;;;;;;5.25;3.70;;;;;;;18.12;41.15;101218.28;5044501;28;20059;-60
2022/12/12 08:51:26;;;;;;;5.57;3.42;;;;;;;18.15;41.15;101217.97;5050603;28;20029;-60
2022/12/12 08:53:52;;;;;;;5.78;3.63;;;;;;;18.16;41.14;101208.88;5064355;28;20462;-60
2022/12/12 08:56:18;;;;;;;5.70;4.43;;;;;;;18.18;40.92;101212.28;5051883;28;20032;-60
2022/12/12 08:58:44;;;;;;;5.20;4.15;;;;;;;18.20;40.76;101214.81;5045142;28;20112;-59
2022/12/12 09:01:11;;;;;;;6.88;4.25;;;;;;;18.16;41.11;101210.72;5064266;28;20059;-60
2022/12/12 09:03:36;;;;;;;7.07;4.40;;;;;;;18.24;41.05;101222.41;5057713;28;20264;-60
2022/12/12 09:06:01;;;;;;;6.32;3.88;;;;;;;18.25;41.62;101220.56;5044365;28;20101;-60
2022/12/12 09:08:27;;;;;;;6.97;4.32;;;;;;;18.27;41.58;101228.50;5036272;28;20045;-60
2022/12/12 09:10:52;;;;;;;5.07;3.50;;;;;;;18.26;41.43;101216.84;5040649;28;20096;-61
2022/12/12 09:13:19;;;;;;;9.77;5.30;;;;;;;18.28;40.84;101216.72;5044440;28;20056;-60
2022/12/12 09:15:49;;;;;;;6.25;4.18;;;;;;;18.30;40.57;101220.94;5043258;28;20038;-60
2022/12/12 09:18:14;;;;;;;6.32;3.97;;;;;;;18.36;40.75;101225.69;5043569;28;20029;-61
2022/12/12 09:20:39;;;;;;;5.10;4.13;;;;;;;18.35;40.84;101231.22;5044152;28;20033;-61
2022/12/12 09:23:04;;;;;;;5.93;4.10;;;;;;;18.35;40.86;101226.72;5043551;28;20030;-61
2022/12/12 09:25:30;;;;;;;6.00;4.30;;;;;;;18.35;40.65;101226.72;5044323;28;20037;-61
2022/12/12 09:27:55;;;;;;;5.25;3.70;;;;;;;18.30;40.68;101214.69;5043511;28;20474;-61
2022/12/12 09:30:21;;;;;;;9.52;4.50;;;;;;;18.34;40.53;101225.00;5043339;28;20044;-60
2022/12/12 09:32:46;;;;;;;8.65;5.43;;;;;;;18.35;40.69;101223.13;5043717;28;20096;-61
2022/12/12 09:35:11;;;;;;;5.53;3.60;;;;;;;18.35;40.60;101228.53;5044200;28;20429;-61
2022/12/12 09:37:36;;;;;;;5.43;3.95;;;;;;;18.33;40.64;101225.16;5044640;28;20034;-61
2022/12/12 09:40:03;;;;;;;5.82;3.92;;;;;;;18.26;40.58;101221.41;5044424;28;20025;-61
2022/12/12 09:42:30;;;;;;;5.57;3.45;;;;;;;18.33;40.69;101225.16;5059694;28;20037;-60
2022/12/12 09:45:04;;;;;;;5.80;3.88;;;;;;;18.34;40.81;101240.31;5042857;28;20025;-60
2022/12/12 09:47:38;;;;;;;5.78;3.92;;;;;;;18.33;40.91;101239.47;5042129;28;20076;-60
2022/12/12 09:50:30;;;;;;;4.80;3.58;;;;;;;18.35;40.71;101244.69;5044572;28;20037;-60
2022/12/12 09:52:59;;;;;;;6.15;4.00;;;;;;;18.34;40.87;101254.59;5043659;28;20125;-61
2022/12/12 09:55:36;;;;;;;7.10;3.90;;;;;;;18.33;41.15;101244.00;5042770;28;20036;-60
2022/12/12 09:58:08;;;;;;;7.07;3.63;;;;;;;18.33;41.18;101241.31;5043131;28;20029;-61
2022/12/12 10:00:37;;;;;;;7.47;4.28;;;;;;;18.33;41.20;101255.63;5044365;28;20021;-61
2022/12/12 10:03:12;;;;;;;7.97;3.60;;;;;;;18.33;41.26;101252.09;5042549;28;20026;-60
2022/12/12 10:05:41;;;;;;;8.27;4.20;;;;;;;18.32;41.18;101250.41;5044371;28;20471;-61
2022/12/12 10:08:41;;;;;;;5.18;4.05;;;;;;;18.30;41.07;101258.59;5039209;28;20113;-60
2022/12/12 10:11:48;;;;;;;5.85;4.38;;;;;;;18.29;41.13;101256.94;5024496;28;20081;-61
2022/12/12 10:13:59;;;;;;;6.85;4.30;;;;;;;18.31;40.89;101248.69;5036911;28;20030;-60
2022/12/12 10:16:24;;;;;;;7.28;4.20;;;;;;;18.31;40.81;101252.25;5045684;28;20022;-60
2022/12/12 10:18:52;;;;;;;6.13;3.97;;;;;;;18.29;41.00;101237.25;5042241;28;20115;-61
2022/12/12 10:21:29;;;;;;;6.72;4.68;;;;;;;18.31;40.90;101246.88;5043600;28;20033;-60
2022/12/12 10:24:10;;;;;;;8.07;4.45;;;;;;;18.32;40.83;101242.31;5042860;28;20021;-61
2022/12/12 10:26:36;;;;;;;6.43;4.13;;;;;;;18.26;40.60;101224.09;5042358;28;20512;-61
2022/12/12 10:29:10;;;;;;;6.45;4.68;;;;;;;18.31;40.89;101229.84;5044262;28;20040;-61
2022/12/12 10:31:57;;;;;;;7.18;4.20;;;;;;;18.17;40.99;101210.56;5043878;28;20025;-61
2022/12/12 10:34:28;;;;;;;6.45;4.22;;;;;;;18.31;40.50;101233.41;5042091;28;20047;-61
2022/12/12 10:37:06;;;;;;;8.50;4.93;;;;;;;18.32;40.64;101239.63;5044075;28;20025;-61
2022/12/12 10:39:59;;;;;;;6.38;4.32;;;;;;;18.32;41.01;101237.78;5043565;28;20033;-61
2022/12/12 10:42:47;;;;;;;5.45;3.85;;;;;;;18.27;40.66;101225.81;5047427;28;20427;-61
2022/12/12 10:45:31;;;;;;;7.93;5.13;;;;;;;18.33;40.75;101235.94;5047345;28;20018;-61
2022/12/12 10:47:56;;;;;;;6.93;4.32;;;;;;;18.30;40.68;101234.38;5046946;28;20042;-61
2022/12/12 10:50:51;;;;;;;7.22;4.43;;;;;;;18.30;40.91;101228.16;5047689;28;20029;-61
2022/12/12 10:53:19;;;;;;;5.38;4.03;;;;;;;18.30;40.81;101236.22;5046265;28;20046;-61
2022/12/12 10:55:50;;;;;;;8.57;3.97;;;;;;;18.30;40.93;101228.16;5046095;28;20029;-61
2022/12/12 10:58:16;;;;;;;6.95;4.15;;;;;;;18.30;41.00;101223.63;5046965;28;20087;-61
2022/12/12 11:00:42;;;;;;;4.93;3.75;;;;;;;18.27;40.72;101223.94;5047626;28;20033;-61
2022/12/12 11:03:26;;;;;;;7.43;4.05;;;;;;;18.31;40.64;101224.47;5045352;28;20033;-62
2022/12/12 11:05:54;;;;;;;4.75;4.13;;;;;;;18.31;40.75;101222.63;5045781;28;20033;-64
2022/12/12 11:08:30;;;;;;;4.97;4.05;;;;;;;18.31;40.87;101216.38;5058468;28;20018;-60
2022/12/12 11:11:03;;;;;;;7.63;4.55;;;;;;;18.31;40.75;101216.38;5027170;28;20049;-61
2022/12/12 11:13:29;;;;;;;5.63;4.00;;;;;;;18.22;40.51;101197.50;5041752;28;20465;-61
2022/12/12 11:16:06;;;;;;;5.47;4.22;;;;;;;18.29;40.35;101204.94;5026459;28;20080;-61
2022/12/12 11:18:32;;;;;;;4.95;3.85;;;;;;;18.30;40.22;101210.16;5026340;28;20475;-61
2022/12/12 11:21:11;;;;;;;5.75;3.95;;;;;;;18.28;40.38;101206.78;5056417;28;20101;-61
2022/12/12 11:23:43;;;;;;;5.93;4.18;;;;;;;18.32;40.44;101204.63;5048157;28;20247;-61
2022/12/12 11:26:15;;;;;;;6.40;4.13;;;;;;;18.31;40.70;101202.94;5045151;28;20030;-60
2022/12/12 11:28:42;;;;;;;6.45;4.30;;;;;;;18.32;40.50;101210.88;5044844;28;20044;-61
2022/12/12 11:31:10;;;;;;;6.50;4.30;;;;;;;18.32;40.48;101202.78;5066393;28;20051;-60
2022/12/12 11:33:51;;;;;;;6.95;3.88;;;;;;;18.34;40.85;101200.78;5056492;28;20048;-61
2022/12/12 11:36:20;;;;;;;7.20;4.28;;;;;;;18.34;40.87;101202.63;5045240;28;20041;-61
2022/12/12 11:38:54;;;;;;;5.97;4.22;;;;;;;18.35;40.61;101199.78;5060756;28;20025;-61
2022/12/12 11:41:20;;;;;;;4.50;3.78;;;;;;;18.30;40.57;101187.78;5043371;28;20028;-60
2022/12/12 11:43:45;;;;;;;5.40;3.78;;;;;;;18.39;40.45;101197.59;5045930;28;20029;-60
2022/12/12 11:46:13;;;;;;;7.35;4.68;;;;;;;18.38;40.64;101194.06;5046106;28;20022;-61
2022/12/12 11:48:50;;;;;;;5.80;4.18;;;;;;;18.38;40.99;101199.44;5045744;28;20045;-60